createdAt,value
2022-10-31T00:00:58.930Z,961.03
2022-10-31T00:03:58.734Z,961.06
2022-10-31T00:06:58.568Z,961.1
2022-10-31T00:09:59.496Z,961.09
2022-10-31T00:12:58.904Z,961.06
2022-10-31T00:15:58.661Z,961.08
2022-10-31T00:18:58.591Z,961.11
2022-10-31T00:21:58.809Z,961.05
2022-10-31T00:24:58.674Z,961.05
2022-10-31T00:27:59.468Z,961.08
2022-10-31T00:30:59.321Z,961.05
2022-10-31T00:33:58.925Z,961.04
2022-10-31T00:36:59.360Z,961.07
2022-10-31T00:39:58.340Z,961.02
2022-10-31T00:42:59.594Z,961.04
2022-10-31T00:45:58.362Z,961.11
2022-10-31T00:48:58.915Z,961.04
2022-10-31T00:51:58.640Z,961.04
2022-10-31T00:54:58.825Z,961.02
2022-10-31T00:57:58.872Z,960.97
2022-10-31T01:00:59.323Z,960.98
2022-10-31T01:03:58.731Z,960.95
2022-10-31T01:06:58.611Z,961.0
2022-10-31T01:09:58.707Z,960.9
2022-10-31T01:12:58.843Z,960.95
2022-10-31T01:15:58.640Z,961.04
2022-10-31T01:18:57.879Z,961.0
2022-10-31T01:21:58.654Z,960.93
2022-10-31T01:24:59.333Z,960.96
2022-10-31T01:27:59.305Z,960.93
2022-10-31T01:30:59.540Z,960.88
2022-10-31T01:33:59.511Z,960.98
2022-10-31T01:36:58.537Z,960.93
2022-10-31T01:39:58.429Z,960.93
2022-10-31T01:42:59.591Z,960.93
2022-10-31T01:45:58.296Z,960.83
2022-10-31T01:48:59.132Z,960.87
2022-10-31T01:51:58.467Z,960.81
2022-10-31T01:54:58.509Z,960.84
2022-10-31T01:57:58.277Z,960.81
2022-10-31T02:01:01.768Z,960.84
2022-10-31T02:03:58.878Z,960.84
2022-10-31T02:06:59.100Z,960.81
2022-10-31T02:09:59.132Z,960.86
2022-10-31T02:12:59.445Z,960.8
2022-10-31T02:15:58.307Z,960.78
2022-10-31T02:18:58.915Z,960.83
2022-10-31T02:21:58.582Z,960.72
2022-10-31T02:24:58.652Z,960.65
2022-10-31T02:27:59.413Z,960.65
2022-10-31T02:30:58.575Z,960.61
2022-10-31T02:33:58.655Z,960.59
2022-10-31T02:36:58.360Z,960.61
2022-10-31T02:39:59.133Z,960.68
2022-10-31T02:42:59.885Z,960.58
2022-10-31T02:45:59.103Z,960.58
2022-10-31T02:48:59.296Z,960.55
2022-10-31T02:51:59.403Z,960.53
2022-10-31T02:54:58.787Z,960.59
2022-10-31T02:57:58.739Z,960.61
2022-10-31T03:00:59.371Z,960.55
2022-10-31T03:03:58.343Z,960.59
2022-10-31T03:06:58.179Z,960.64
2022-10-31T03:09:58.924Z,960.61
2022-10-31T03:12:58.821Z,960.64
2022-10-31T03:15:59.169Z,960.61
2022-10-31T03:18:59.032Z,960.64
2022-10-31T03:21:58.281Z,960.59
2022-10-31T03:24:58.891Z,960.55
2022-10-31T03:27:59.767Z,960.55
2022-10-31T03:31:02.262Z,960.59
2022-10-31T03:33:58.443Z,960.58
2022-10-31T03:36:58.728Z,960.58
2022-10-31T03:39:59.000Z,960.49
2022-10-31T03:42:59.966Z,960.61
2022-10-31T03:45:58.587Z,960.67
2022-10-31T03:48:58.489Z,960.62
2022-10-31T03:51:58.540Z,960.68
2022-10-31T03:54:58.707Z,960.64
2022-10-31T03:57:59.246Z,960.63
2022-10-31T04:00:58.744Z,960.57
2022-10-31T04:03:59.441Z,960.6
2022-10-31T04:06:58.669Z,960.64
2022-10-31T04:09:59.262Z,960.7
2022-10-31T04:12:58.557Z,960.64
2022-10-31T04:15:59.056Z,960.57
2022-10-31T04:18:59.107Z,960.64
2022-10-31T04:21:59.215Z,960.64
2022-10-31T04:24:58.553Z,960.54
2022-10-31T04:27:59.149Z,960.57
2022-10-31T04:30:59.769Z,960.53
2022-10-31T04:33:58.438Z,960.44
2022-10-31T04:36:58.284Z,960.5
2022-10-31T04:39:58.968Z,960.53
2022-10-31T04:42:59.980Z,960.44
2022-10-31T04:45:59.858Z,960.47
2022-10-31T04:48:58.824Z,960.5
2022-10-31T04:51:58.735Z,960.5
2022-10-31T04:54:59.502Z,960.46
2022-10-31T04:57:59.268Z,960.46
2022-10-31T05:00:59.610Z,960.37
2022-10-31T05:03:58.764Z,960.44
2022-10-31T05:06:59.195Z,960.31
2022-10-31T05:09:59.587Z,960.33
2022-10-31T05:12:59.784Z,960.24
2022-10-31T05:15:59.467Z,960.27
2022-10-31T05:18:59.264Z,960.3
2022-10-31T05:21:59.350Z,960.3
2022-10-31T05:24:59.485Z,960.24
2022-10-31T05:27:59.827Z,960.25
2022-10-31T05:30:59.182Z,960.25
2022-10-31T05:33:58.202Z,960.34
2022-10-31T05:36:59.299Z,960.24
2022-10-31T05:40:01.240Z,960.21
2022-10-31T05:42:59.137Z,960.21
2022-10-31T05:45:59.478Z,960.13
2022-10-31T05:49:01.779Z,960.24
2022-10-31T05:51:58.959Z,960.12
2022-10-31T05:54:58.752Z,960.15
2022-10-31T05:57:59.775Z,960.12
2022-10-31T06:00:59.980Z,960.04
2022-10-31T06:03:59.045Z,959.98
2022-10-31T06:06:59.093Z,960.08
2022-10-31T06:09:59.725Z,959.92
2022-10-31T06:12:59.207Z,960.01
2022-10-31T06:15:58.732Z,960.02
2022-10-31T06:18:59.159Z,960.0
2022-10-31T06:21:58.887Z,960.01
2022-10-31T06:24:59.428Z,959.94
2022-10-31T06:27:59.467Z,960.05
2022-10-31T06:30:58.699Z,960.01
2022-10-31T06:33:59.064Z,960.0
2022-10-31T06:36:58.485Z,960.08
2022-10-31T06:39:58.614Z,960.1
2022-10-31T06:42:59.252Z,960.07
2022-10-31T06:45:58.791Z,960.03
2022-10-31T06:48:58.968Z,960.11
2022-10-31T06:51:59.612Z,960.17
2022-10-31T06:54:59.011Z,960.19
2022-10-31T06:58:02.045Z,960.13
2022-10-31T07:00:59.076Z,960.19
2022-10-31T07:03:58.971Z,960.14
2022-10-31T07:06:58.999Z,960.17
2022-10-31T07:09:59.076Z,960.14
2022-10-31T07:12:59.984Z,960.11
2022-10-31T07:15:58.644Z,960.15
2022-10-31T07:18:58.465Z,960.18
2022-10-31T07:21:59.377Z,960.17
2022-10-31T07:24:58.672Z,960.14
2022-10-31T07:27:59.654Z,960.14
2022-10-31T07:30:58.687Z,960.14
2022-10-31T07:33:58.785Z,960.2
2022-10-31T07:36:58.549Z,960.21
2022-10-31T07:39:59.581Z,960.21
2022-10-31T07:42:58.438Z,960.15
2022-10-31T07:45:59.295Z,960.16
2022-10-31T07:48:59.167Z,960.09
2022-10-31T07:51:59.158Z,960.12
2022-10-31T07:54:58.807Z,960.05
2022-10-31T07:57:59.377Z,960.16
2022-10-31T08:00:58.937Z,960.16
2022-10-31T08:03:59.070Z,960.19
2022-10-31T08:06:58.353Z,960.14
2022-10-31T08:09:58.848Z,960.06
2022-10-31T08:12:59.112Z,960.11
2022-10-31T08:15:58.735Z,960.16
2022-10-31T08:18:58.686Z,960.1
2022-10-31T08:21:58.746Z,959.98
2022-10-31T08:24:58.599Z,959.98
2022-10-31T08:27:59.036Z,960.01
2022-10-31T08:30:58.609Z,959.89
2022-10-31T08:33:58.643Z,959.96
2022-10-31T08:36:58.984Z,959.91
2022-10-31T08:39:59.563Z,959.95
2022-10-31T08:42:58.544Z,959.85
2022-10-31T08:45:59.021Z,959.89
2022-10-31T08:48:58.911Z,959.83
2022-10-31T08:51:59.388Z,959.77
2022-10-31T08:54:58.848Z,959.76
2022-10-31T08:57:59.706Z,959.8
2022-10-31T09:00:59.659Z,959.84
2022-10-31T09:03:58.552Z,959.85
2022-10-31T09:07:20.134Z,959.77
2022-10-31T09:09:58.915Z,959.77
2022-10-31T09:12:58.930Z,959.8
2022-10-31T09:15:58.308Z,959.77
2022-10-31T09:18:59.115Z,959.78
2022-10-31T09:21:59.229Z,959.78
2022-10-31T09:24:58.741Z,959.77
2022-10-31T09:27:58.867Z,959.78
2022-10-31T09:30:59.109Z,959.66
2022-10-31T09:33:58.314Z,959.79
2022-10-31T09:36:59.040Z,959.79
2022-10-31T09:39:58.710Z,959.67
2022-10-31T09:42:58.881Z,959.63
2022-10-31T09:45:59.944Z,959.75
2022-10-31T09:48:58.519Z,959.66
2022-10-31T09:51:58.550Z,959.73
2022-10-31T09:54:58.761Z,959.72
2022-10-31T09:57:59.463Z,959.7
2022-10-31T10:00:59.748Z,959.57
2022-10-31T10:03:58.359Z,959.61
2022-10-31T10:06:58.363Z,959.62
2022-10-31T10:09:58.889Z,959.62
2022-10-31T10:13:01.150Z,959.52
2022-10-31T10:15:58.675Z,959.56
2022-10-31T10:18:58.812Z,959.53
2022-10-31T10:21:59.452Z,959.47
2022-10-31T10:24:59.221Z,959.45
2022-10-31T10:27:58.613Z,959.39
2022-10-31T10:30:58.665Z,959.4
2022-10-31T10:33:59.361Z,959.34
2022-10-31T10:36:58.653Z,959.41
2022-10-31T10:39:58.942Z,959.21
2022-10-31T10:42:59.079Z,959.17
2022-10-31T10:45:58.300Z,959.12
2022-10-31T10:48:58.835Z,959.19
2022-10-31T10:52:13.309Z,959.16
2022-10-31T10:54:58.631Z,959.16
2022-10-31T10:57:59.663Z,959.14
2022-10-31T11:00:59.620Z,959.14
2022-10-31T11:04:25.653Z,959.08
2022-10-31T11:06:58.910Z,959.12
2022-10-31T11:09:59.558Z,959.08
2022-10-31T11:12:58.712Z,959.01
2022-10-31T11:15:59.441Z,959.05
2022-10-31T11:18:59.346Z,958.99
2022-10-31T11:21:59.274Z,959.03
2022-10-31T11:24:59.210Z,958.95
2022-10-31T11:27:59.222Z,958.92
2022-10-31T11:30:58.868Z,958.86
2022-10-31T11:33:59.037Z,958.82
2022-10-31T11:36:58.216Z,958.87
2022-10-31T11:39:59.202Z,958.79
2022-10-31T11:42:58.255Z,958.8
2022-10-31T11:45:59.141Z,958.7
2022-10-31T11:48:58.858Z,958.7
2022-10-31T11:51:58.451Z,958.67
2022-10-31T11:54:58.948Z,958.71
2022-10-31T11:57:59.531Z,958.63
2022-10-31T12:00:59.232Z,958.51
2022-10-31T12:03:58.642Z,958.67
2022-10-31T12:06:58.487Z,958.5
2022-10-31T12:09:58.883Z,958.46
2022-10-31T12:12:59.528Z,958.41
2022-10-31T12:15:59.434Z,958.36
2022-10-31T12:18:59.118Z,958.29
2022-10-31T12:22:00.839Z,958.32
2022-10-31T12:24:58.632Z,958.27
2022-10-31T12:27:58.513Z,958.32
2022-10-31T12:30:59.045Z,958.23
2022-10-31T12:33:58.447Z,958.21
2022-10-31T12:36:59.229Z,958.12
2022-10-31T12:39:58.877Z,958.12
2022-10-31T12:42:59.600Z,958.14
2022-10-31T12:45:59.154Z,958.07
2022-10-31T12:48:58.523Z,958.01
2022-10-31T12:51:58.365Z,957.97
2022-10-31T12:54:58.913Z,957.94
2022-10-31T12:57:59.307Z,957.96
2022-10-31T13:00:59.072Z,958.02
2022-10-31T13:03:58.727Z,957.89
2022-10-31T13:06:58.814Z,957.88
2022-10-31T13:09:58.816Z,957.91
2022-10-31T13:12:59.695Z,957.89
2022-10-31T13:15:59.142Z,957.82
2022-10-31T13:18:58.345Z,957.86
2022-10-31T13:21:59.573Z,957.78
2022-10-31T13:24:59.282Z,957.78
2022-10-31T13:27:58.402Z,957.63
2022-10-31T13:30:59.120Z,957.56
2022-10-31T13:33:58.944Z,957.59
2022-10-31T13:36:58.671Z,957.49
2022-10-31T13:39:58.559Z,957.57
2022-10-31T13:42:58.674Z,957.49
2022-10-31T13:45:59.339Z,957.44
2022-10-31T13:48:58.462Z,957.4
2022-10-31T13:51:59.159Z,957.37
2022-10-31T13:54:59.160Z,957.29
2022-10-31T13:57:58.584Z,957.27
2022-10-31T14:00:59.571Z,957.3
2022-10-31T14:04:10.970Z,957.26
2022-10-31T14:06:59.060Z,957.27
2022-10-31T14:09:59.304Z,957.16
2022-10-31T14:12:59.021Z,957.15
2022-10-31T14:15:59.132Z,957.16
2022-10-31T14:18:58.924Z,957.1
2022-10-31T14:21:59.325Z,957.07
2022-10-31T14:24:59.196Z,957.1
2022-10-31T14:28:00.132Z,957.06
2022-10-31T14:30:59.957Z,957.01
2022-10-31T14:33:58.819Z,956.96
2022-10-31T14:36:59.914Z,956.93
2022-10-31T14:39:59.182Z,957.03
2022-10-31T14:42:58.808Z,956.9
2022-10-31T14:45:59.488Z,956.96
2022-10-31T14:48:58.668Z,956.87
2022-10-31T14:51:58.529Z,957.01
2022-10-31T14:54:59.323Z,956.89
2022-10-31T14:57:59.495Z,956.84
2022-10-31T15:00:58.987Z,956.81
2022-10-31T15:04:22.232Z,956.86
2022-10-31T15:06:59.157Z,956.71
2022-10-31T15:09:59.494Z,956.76
2022-10-31T15:12:59.759Z,956.84
2022-10-31T15:15:59.338Z,956.79
2022-10-31T15:18:58.423Z,956.8
2022-10-31T15:21:59.011Z,956.79
2022-10-31T15:24:58.930Z,956.83
2022-10-31T15:27:59.375Z,956.96
2022-10-31T15:30:59.907Z,956.98
2022-10-31T15:33:58.763Z,956.88
2022-10-31T15:36:59.135Z,956.89
2022-10-31T15:39:59.894Z,956.92
2022-10-31T15:42:59.557Z,956.76
2022-10-31T15:45:58.750Z,956.72
2022-10-31T15:48:58.790Z,956.71
2022-10-31T15:54:59.232Z,956.53
2022-10-31T15:57:58.813Z,956.61
2022-10-31T16:00:59.674Z,956.54
2022-10-31T16:03:59.761Z,956.59
2022-10-31T16:07:00.383Z,956.65
2022-10-31T16:09:59.523Z,956.54
2022-10-31T16:12:59.040Z,956.54
2022-10-31T16:16:21.193Z,956.54
2022-10-31T16:18:59.369Z,956.63
2022-10-31T16:21:59.231Z,956.68
2022-10-31T16:24:59.264Z,956.61
2022-10-31T16:27:59.461Z,956.63
2022-10-31T16:30:59.794Z,956.7
2022-10-31T16:33:59.402Z,956.75
2022-10-31T16:36:59.101Z,956.78
2022-10-31T16:39:59.049Z,956.72
2022-10-31T16:42:59.429Z,956.72
2022-10-31T16:45:59.129Z,956.69
2022-10-31T16:48:58.960Z,956.65
2022-10-31T16:51:58.749Z,956.62
2022-10-31T16:54:58.755Z,956.7
2022-10-31T16:57:59.099Z,956.71
2022-10-31T17:00:59.791Z,956.74
2022-10-31T17:03:59.672Z,956.7
2022-10-31T17:06:58.464Z,956.73
2022-10-31T17:09:58.704Z,956.64
2022-10-31T17:12:59.005Z,956.7
2022-10-31T17:15:58.575Z,956.71
2022-10-31T17:18:59.191Z,956.56
2022-10-31T17:21:58.561Z,956.61
2022-10-31T17:24:59.331Z,956.76
2022-10-31T17:27:58.491Z,956.64
2022-10-31T17:30:58.970Z,956.7
2022-10-31T17:34:02.457Z,956.73
2022-10-31T17:36:59.176Z,956.7
2022-10-31T17:39:59.096Z,956.71
2022-10-31T17:42:59.537Z,956.75
2022-10-31T17:45:59.364Z,956.78
2022-10-31T17:48:58.520Z,956.66
2022-10-31T17:51:58.977Z,956.56
2022-10-31T17:54:59.210Z,956.58
2022-10-31T17:57:58.386Z,956.59
2022-10-31T18:01:26.063Z,956.62
2022-10-31T18:03:58.747Z,956.52
2022-10-31T18:06:58.823Z,956.54
2022-10-31T18:09:58.873Z,956.43
2022-10-31T18:12:59.406Z,956.46
2022-10-31T18:15:58.883Z,956.48
2022-10-31T18:18:59.513Z,956.48
2022-10-31T18:21:59.029Z,956.36
2022-10-31T18:25:02.075Z,956.39
2022-10-31T18:27:58.880Z,956.32
2022-10-31T18:30:59.269Z,956.26
2022-10-31T18:33:58.497Z,956.22
2022-10-31T18:36:59.224Z,956.19
2022-10-31T18:39:59.264Z,956.33
2022-10-31T18:42:58.385Z,956.13
2022-10-31T18:45:59.257Z,956.2
2022-10-31T18:48:59.199Z,956.14
2022-10-31T18:51:59.178Z,956.11
2022-10-31T18:54:58.221Z,956.13
2022-10-31T18:57:59.056Z,956.16
2022-10-31T19:00:58.959Z,956.19
2022-10-31T19:03:58.901Z,956.16
2022-10-31T19:06:59.027Z,956.09
2022-10-31T19:09:59.302Z,956.03
2022-10-31T19:12:59.134Z,956.06
2022-10-31T19:15:58.957Z,956.01
2022-10-31T19:18:59.009Z,955.97
2022-10-31T19:21:59.036Z,955.93
2022-10-31T19:24:58.788Z,955.88
2022-10-31T19:27:59.026Z,955.88
2022-10-31T19:30:58.623Z,956.01
2022-10-31T19:33:58.716Z,956.04
2022-10-31T19:36:59.102Z,956.06
2022-10-31T19:39:58.583Z,956.11
2022-10-31T19:42:59.253Z,956.02
2022-10-31T19:45:59.229Z,955.94
2022-10-31T19:48:59.321Z,955.9
2022-10-31T19:51:58.527Z,955.84
2022-10-31T19:54:59.226Z,955.94
2022-10-31T19:58:01.914Z,955.84
2022-10-31T20:03:58.973Z,955.78
2022-10-31T20:06:58.447Z,955.85
2022-10-31T20:09:59.338Z,955.88
2022-10-31T20:12:58.949Z,955.81
2022-10-31T20:15:59.013Z,955.76
2022-10-31T20:18:58.776Z,955.66
2022-10-31T20:21:58.301Z,955.69
2022-10-31T20:24:59.058Z,955.65
2022-10-31T20:27:58.969Z,955.67
2022-10-31T20:30:58.619Z,955.66
2022-10-31T20:33:58.705Z,955.59
2022-10-31T20:36:58.888Z,955.57
2022-10-31T20:39:58.321Z,955.46
2022-10-31T20:42:58.607Z,955.53
2022-10-31T20:45:59.154Z,955.47
2022-10-31T20:48:58.930Z,955.4
2022-10-31T20:51:59.520Z,955.41
2022-10-31T20:54:58.483Z,955.34
2022-10-31T20:57:58.950Z,955.28
2022-10-31T21:00:59.722Z,955.26
2022-10-31T21:03:58.691Z,955.19
2022-10-31T21:06:58.880Z,955.23
2022-10-31T21:09:58.921Z,955.31
2022-10-31T21:12:59.826Z,955.89
2022-10-31T21:15:58.624Z,955.84
2022-10-31T21:18:58.643Z,955.8
2022-10-31T21:21:58.446Z,955.99
2022-10-31T21:24:58.620Z,955.96
2022-10-31T21:27:59.445Z,956.03
2022-10-31T21:30:59.055Z,955.97
2022-10-31T21:33:58.882Z,956.06
2022-10-31T21:36:59.362Z,956.02
2022-10-31T21:39:59.671Z,956.03
2022-10-31T21:42:59.363Z,956.08
2022-10-31T21:45:59.312Z,956.2
2022-10-31T21:48:58.784Z,956.21
2022-10-31T21:51:59.248Z,956.21
2022-10-31T21:54:58.664Z,956.2
2022-10-31T21:57:59.301Z,956.11
2022-10-31T22:00:58.936Z,956.17
2022-10-31T22:03:58.531Z,956.21
2022-10-31T22:06:58.576Z,956.17
2022-10-31T22:09:59.176Z,956.16
2022-10-31T22:12:59.742Z,956.34
2022-10-31T22:15:58.514Z,956.26
2022-10-31T22:18:59.207Z,956.2
2022-10-31T22:21:59.229Z,956.13
2022-10-31T22:24:58.718Z,956.24
2022-10-31T22:27:59.372Z,956.16
2022-10-31T22:30:59.181Z,956.13
2022-10-31T22:33:58.791Z,956.11
2022-10-31T22:36:59.128Z,956.14
2022-10-31T22:39:58.623Z,956.05
2022-10-31T22:42:59.291Z,956.01
2022-10-31T22:45:59.107Z,956.04
2022-10-31T22:48:58.413Z,955.97
2022-10-31T22:51:59.011Z,955.92
2022-10-31T22:54:59.429Z,955.85
2022-10-31T22:57:59.015Z,955.92
2022-10-31T23:00:59.966Z,955.85
2022-10-31T23:03:59.517Z,955.67
2022-10-31T23:06:59.508Z,955.71
2022-10-31T23:09:58.798Z,955.66
2022-10-31T23:12:58.769Z,955.71
2022-10-31T23:15:59.321Z,955.68
2022-10-31T23:18:58.958Z,955.75
2022-10-31T23:21:58.823Z,955.75
2022-10-31T23:24:58.758Z,955.91
2022-10-31T23:27:58.456Z,955.81
2022-10-31T23:30:59.165Z,955.85
2022-10-31T23:33:58.385Z,955.8
2022-10-31T23:36:58.493Z,955.78
2022-10-31T23:39:58.955Z,955.88
2022-10-31T23:42:58.675Z,955.9
2022-10-31T23:45:58.331Z,955.96
2022-10-31T23:48:58.707Z,956.01
2022-10-31T23:51:59.087Z,955.87
2022-10-31T23:54:59.978Z,956.0
2022-10-31T23:57:59.392Z,956.03
